Captain Cook, HI

3:13 AM HST on February 27, 2015 (GMT -1000)
Bradshaw Army Air Field | Change Station
CLOSE
Current Station
Airport
Location: Bradshaw AFB,
Elevation: 6191 ft
Nearby Weather Stations

Elev 6191 ft 19.76 °N, 155.55 °W | Updated 17 minutes ago

Clear
Clear
44 °F
Feels Like 42 °F
N
5
Wind Variable Wind from ESE

Today
High -- | Low -- °F
--% Chance of Precip.
Yesterday
High -- | Low -- °F
Precip. -- in
6:44 AM 6:28 PM
Waxing Gibbous, 68% visible
Pressure 29.92 in
Visibility 8.0 miles
Clouds Clear
Windchill 42 °F
Dew Point 37 °F
Humidity 75%
Rainfall 0.00 in
Snow Depth Not available.
UV 0 out of 12
Pollen Not available.
Air Quality Not available.
Flu Activity Not available.
METAR PHSF 271256Z AUTO 12004KT 8SM CLR 07/03 A3023 RMK AO2 SLP131 T00670026 $

More Conditions Fewer Conditions

Pressure 29.92 in
Visibility 8.0 miles
Clouds Clear
Windchill 42 °F
Dew Point 37 °F
Humidity 75%
Rainfall 0.00 in
Snow Depth Not available.
UV 0 out of 12
Pollen Not available.
Air Quality Not available.
Flu Activity Not available.
METAR PHSF 271256Z AUTO 12004KT 8SM CLR 07/03 A3023 RMK AO2 SLP131 T00670026 $

More Conditions Fewer Conditions

10-Day Weather Forecast

Almanac

Astronomy

Feb. 27, 2015 Rise Set
Actual Time
Civil Twilight
Nautical Twilight
Astronomical Twilight
Moon
Length of Visible Light
Length of Day
Tomorrow will be .
, % of the Moon is Illuminated

Today's Extremes

State Highs State Lows

Community

WunderPhotos

Upload Photos

1,800,668 photos uploaded!

WunderBlogs® & News

Nearby

Air Quality

  Air Quality AQ Index Pollutant
Not available.

Snow Depth

Station Depth Elevation

Earthquake Activity

City Distance Mag. Time & Date
Minimum magnitude displayed is 2.5.

Coastal Water Temperatures

Place Temperature

Nearby Weather Stations